Time;durP1;ratioP1;P1;durP2;ratioP2;P2;SDS_P1;SDS_P2;PMS_P1;PMS_P2;Temp;Humidity;BMP_temperature;BMP_pressure;BME280_temperature;BME280_humidity;BME280_pressure;Samples;Min_cycle;Max_cycle;Signal;HPM_P1;HPM_P2
2021/05/03 00:02:17;;;;;;;10.53;9.07;;;5.70;96.20;;;;;;5077909;28;20200;-41
2021/05/03 00:04:43;;;;;;;9.27;8.20;;;5.60;96.50;;;;;;5077889;28;20239;-41
2021/05/03 00:07:09;;;;;;;9.40;8.50;;;5.60;96.70;;;;;;5078638;28;20410;-38
2021/05/03 00:09:35;;;;;;;9.57;8.57;;;5.50;96.80;;;;;;5077999;28;20205;-41
2021/05/03 00:12:01;;;;;;;9.53;8.53;;;5.50;97.00;;;;;;5078211;28;20439;-40
2021/05/03 00:14:26;;;;;;;10.13;9.13;;;5.40;97.10;;;;;;5078196;28;20225;-40
2021/05/03 00:16:52;;;;;;;11.30;8.57;;;5.40;97.20;;;;;;5078279;28;20435;-41
2021/05/03 00:19:18;;;;;;;9.53;8.50;;;5.30;97.20;;;;;;5077808;28;20227;-40
2021/05/03 00:21:44;;;;;;;9.80;8.77;;;5.30;97.30;;;;;;5077947;28;20268;-41
2021/05/03 00:24:10;;;;;;;10.20;9.30;;;5.20;97.40;;;;;;5078189;28;20586;-41
2021/05/03 00:26:35;;;;;;;8.37;7.47;;;5.20;97.40;;;;;;5077676;28;20411;-41
2021/05/03 00:29:01;;;;;;;10.37;9.37;;;5.10;97.50;;;;;;5077958;28;20179;-41
2021/05/03 00:31:27;;;;;;;10.33;9.40;;;5.10;97.60;;;;;;5076743;28;20193;-41
2021/05/03 00:33:53;;;;;;;9.03;8.00;;;5.00;97.60;;;;;;5077732;28;20181;-41
2021/05/03 00:36:18;;;;;;;11.23;9.03;;;5.00;97.60;;;;;;5078349;28;20539;-41
2021/05/03 00:38:44;;;;;;;10.10;9.00;;;4.90;97.60;;;;;;5081665;28;20212;-41
2021/05/03 00:41:10;;;;;;;10.17;9.07;;;4.80;97.70;;;;;;5081995;28;20180;-41
2021/05/03 00:43:35;;;;;;;8.77;7.80;;;4.80;97.80;;;;;;5081931;28;20177;-41
2021/05/03 00:46:01;;;;;;;9.30;8.40;;;4.70;97.90;;;;;;5081690;28;20173;-41
2021/05/03 00:48:27;;;;;;;9.43;8.53;;;4.70;98.00;;;;;;5080947;28;20197;-41
2021/05/03 00:50:53;;;;;;;9.47;8.50;;;4.60;98.00;;;;;;5081584;28;20181;-40
2021/05/03 00:53:19;;;;;;;8.47;7.57;;;4.60;98.00;;;;;;5081851;28;20180;-39
2021/05/03 00:55:46;;;;;;;9.33;8.40;;;4.50;98.00;;;;;;5081651;28;20208;-41
2021/05/03 00:58:12;;;;;;;10.07;9.07;;;4.50;98.00;;;;;;5080292;28;20524;-41
2021/05/03 01:00:38;;;;;;;10.70;9.53;;;4.50;98.00;;;;;;5081202;28;20728;-40
2021/05/03 01:03:06;;;;;;;9.60;8.60;;;4.50;98.00;;;;;;5081502;28;20490;-41
2021/05/03 01:05:32;;;;;;;9.17;8.30;;;4.50;98.10;;;;;;5081678;28;20427;-40
2021/05/03 01:07:59;;;;;;;9.10;8.20;;;4.40;98.20;;;;;;5081296;28;20419;-41
2021/05/03 01:10:30;;;;;;;10.43;9.43;;;4.40;98.20;;;;;;5081768;28;20465;-37
2021/05/03 01:12:57;;;;;;;11.37;9.17;;;4.30;98.20;;;;;;5079813;28;20711;-40
2021/05/03 01:15:24;;;;;;;10.83;9.73;;;4.40;98.20;;;;;;5080222;28;20884;-41
2021/05/03 01:18:01;;;;;;;11.20;10.10;;;4.30;98.20;;;;;;5080807;28;20435;-41
2021/05/03 01:20:38;;;;;;;10.50;9.50;;;4.20;98.30;;;;;;5081325;28;20403;-41
2021/05/03 01:23:06;;;;;;;11.10;10.00;;;4.20;98.30;;;;;;5081220;28;20442;-43
2021/05/03 01:25:34;;;;;;;11.03;9.93;;;4.10;98.30;;;;;;5082183;28;20461;-40
2021/05/03 01:28:01;;;;;;;10.73;9.47;;;4.10;98.40;;;;;;5081208;28;20456;-41
2021/05/03 01:30:43;;;;;;;10.93;9.83;;;4.00;98.50;;;;;;5081103;28;20435;-41
2021/05/03 01:33:10;;;;;;;11.50;10.30;;;4.00;98.60;;;;;;5080486;28;20442;-40
2021/05/03 01:35:38;;;;;;;11.10;9.90;;;4.00;98.70;;;;;;5080753;28;20423;-41
2021/05/03 01:38:06;;;;;;;11.67;10.30;;;4.00;98.70;;;;;;5086003;28;20478;-40
2021/05/03 01:40:36;;;;;;;11.90;10.67;;;4.00;98.70;;;;;;5083420;28;20419;-40
2021/05/03 01:43:09;;;;;;;11.43;10.37;;;3.90;98.70;;;;;;5079615;28;20443;-41
2021/05/03 01:45:37;;;;;;;11.80;10.60;;;3.90;98.70;;;;;;5080990;28;20518;-40
2021/05/03 01:48:04;;;;;;;12.10;10.90;;;3.80;98.70;;;;;;5085583;28;20446;-41
2021/05/03 01:50:29;;;;;;;11.07;9.97;;;3.80;98.80;;;;;;5101103;28;20415;-41
2021/05/03 01:52:55;;;;;;;11.93;10.73;;;3.80;99.00;;;;;;5100530;28;20435;-39
2021/05/03 01:55:21;;;;;;;13.00;11.70;;;3.80;99.00;;;;;;5098853;28;20422;-40
2021/05/03 01:57:47;;;;;;;11.50;10.40;;;3.80;99.00;;;;;;5079902;28;20457;-41
2021/05/03 02:00:14;;;;;;;13.53;12.13;;;3.80;98.90;;;;;;5080613;28;20415;-42
2021/05/03 02:02:43;;;;;;;12.10;10.63;;;3.80;98.90;;;;;;5080071;28;20204;-41
2021/05/03 02:05:10;;;;;;;13.30;11.90;;;3.80;99.00;;;;;;5080661;28;20501;-42
2021/05/03 02:07:36;;;;;;;12.80;11.43;;;3.80;99.10;;;;;;5079599;28;20426;-42
2021/05/03 02:10:01;;;;;;;13.67;12.37;;;3.80;99.10;;;;;;5080325;28;20430;-42
2021/05/03 02:12:27;;;;;;;12.50;11.20;;;3.80;99.10;;;;;;5080362;28;20189;-42
2021/05/03 02:14:53;;;;;;;11.97;10.73;;;3.80;99.20;;;;;;5079793;28;20217;-42
2021/05/03 02:17:18;;;;;;;13.13;11.83;;;3.80;99.20;;;;;;5080285;28;20243;-39
2021/05/03 02:19:44;;;;;;;13.87;12.20;;;3.90;99.40;;;;;;5080137;28;20255;-42
2021/05/03 02:22:10;;;;;;;14.23;11.93;;;3.90;99.40;;;;;;5080285;28;20254;-39
2021/05/03 02:24:35;;;;;;;14.30;12.07;;;3.90;99.50;;;;;;5080515;28;20243;-41
2021/05/03 02:27:02;;;;;;;13.60;12.30;;;4.00;99.60;;;;;;5079898;28;20630;-41
2021/05/03 02:29:27;;;;;;;12.83;11.53;;;4.00;99.60;;;;;;5079491;28;20482;-40
2021/05/03 02:31:53;;;;;;;13.57;12.27;;;4.00;99.60;;;;;;5079905;28;20422;-42
2021/05/03 02:34:19;;;;;;;15.30;13.70;;;4.10;99.70;;;;;;5079810;28;20195;-42
2021/05/03 02:36:45;;;;;;;13.40;12.00;;;4.10;99.70;;;;;;5079267;28;20579;-41
2021/05/03 02:39:11;;;;;;;17.53;13.07;;;4.10;99.50;;;;;;5079667;28;20474;-40
2021/05/03 02:41:36;;;;;;;15.53;11.67;;;4.20;99.30;;;;;;5079706;28;20515;-41
2021/05/03 02:44:04;;;;;;;13.47;12.07;;;4.20;99.60;;;;;;5079568;28;20177;-41
2021/05/03 02:46:30;;;;;;;14.80;13.30;;;4.20;99.30;;;;;;5079727;28;20197;-40
2021/05/03 02:48:56;;;;;;;18.43;13.33;;;4.20;99.20;;;;;;5079576;28;20422;-41
2021/05/03 02:51:24;;;;;;;14.30;12.90;;;4.20;99.10;;;;;;5079236;28;20431;-41
2021/05/03 02:53:50;;;;;;;16.60;14.07;;;4.20;99.10;;;;;;5078698;28;20523;-42
2021/05/03 02:56:16;;;;;;;14.23;12.80;;;4.10;99.10;;;;;;5079737;28;20439;-42
2021/05/03 02:58:42;;;;;;;16.30;13.47;;;4.10;99.10;;;;;;5079595;28;20216;-42
2021/05/03 03:01:07;;;;;;;13.40;12.20;;;4.10;99.10;;;;;;5079192;28;20439;-42
2021/05/03 03:03:33;;;;;;;14.30;12.90;;;4.10;99.20;;;;;;5079188;28;20174;-41
2021/05/03 03:05:58;;;;;;;14.90;13.40;;;4.10;99.10;;;;;;5079255;28;20517;-42
2021/05/03 03:08:24;;;;;;;16.27;13.97;;;4.00;99.10;;;;;;5078893;28;20189;-41
2021/05/03 03:10:50;;;;;;;13.10;11.70;;;4.00;99.20;;;;;;5079283;28;20227;-40
2021/05/03 03:13:16;;;;;;;15.20;13.60;;;4.00;99.40;;;;;;5078769;28;20178;-42
2021/05/03 03:15:41;;;;;;;14.93;13.17;;;4.00;99.40;;;;;;5078662;28;20228;-41
2021/05/03 03:18:07;;;;;;;14.80;13.27;;;4.00;99.40;;;;;;5078802;28;20192;-40
2021/05/03 03:20:34;;;;;;;14.37;12.97;;;4.00;99.40;;;;;;5078912;28;20570;-41
2021/05/03 03:22:59;;;;;;;14.77;13.27;;;4.00;99.30;;;;;;5079300;28;20419;-41
2021/05/03 03:25:26;;;;;;;15.17;13.67;;;4.00;99.30;;;;;;5078815;28;20431;-42
2021/05/03 03:27:52;;;;;;;14.93;13.03;;;4.00;99.30;;;;;;5078597;28;20181;-42
2021/05/03 03:30:18;;;;;;;14.70;13.20;;;4.00;99.30;;;;;;5078725;28;20438;-39
2021/05/03 03:32:45;;;;;;;15.10;13.60;;;4.00;99.30;;;;;;5078259;28;20185;-42
2021/05/03 03:35:13;;;;;;;16.60;14.90;;;4.00;99.40;;;;;;5078577;28;20430;-39
2021/05/03 03:37:39;;;;;;;15.97;14.27;;;4.00;99.30;;;;;;5079017;28;20930;-41
2021/05/03 03:40:05;;;;;;;14.83;13.33;;;3.90;99.50;;;;;;5077364;28;20470;-42
2021/05/03 03:42:31;;;;;;;16.90;15.20;;;3.90;99.50;;;;;;5078865;28;20185;-40
2021/05/03 03:44:58;;;;;;;14.90;13.40;;;3.90;99.50;;;;;;5078309;28;20408;-41
2021/05/03 03:47:24;;;;;;;15.80;13.90;;;4.00;99.50;;;;;;5078496;28;20185;-42
2021/05/03 03:49:50;;;;;;;17.70;13.73;;;4.00;99.40;;;;;;5078211;28;20439;-41
2021/05/03 03:52:15;;;;;;;15.80;13.87;;;4.00;99.40;;;;;;5078417;28;20484;-39
2021/05/03 03:54:41;;;;;;;15.53;13.50;;;4.00;99.40;;;;;;5077920;28;20423;-42
2021/05/03 03:57:06;;;;;;;16.87;14.53;;;4.00;99.40;;;;;;5078397;28;20189;-41
2021/05/03 03:59:36;;;;;;;17.93;12.90;;;4.00;99.30;;;;;;5077587;28;20595;-42
2021/05/03 04:02:02;;;;;;;14.40;12.70;;;4.00;99.10;;;;;;5077437;28;20614;-39
2021/05/03 04:04:30;;;;;;;16.67;14.93;;;4.00;99.00;;;;;;5077477;28;20431;-42
2021/05/03 04:07:11;;;;;;;16.50;13.67;;;4.00;99.00;;;;;;5076758;28;20185;-42
2021/05/03 04:09:45;;;;;;;15.83;14.23;;;4.00;98.90;;;;;;5076998;28;20465;-41
2021/05/03 04:23:06;;;;;;;16.13;14.50;;;3.90;99.10;;;;;;5076269;28;20462;-42
2021/05/03 04:25:36;;;;;;;14.60;12.90;;;3.90;99.00;;;;;;5076631;28;20500;-42
2021/05/03 04:28:02;;;;;;;15.67;14.07;;;3.90;99.00;;;;;;5076534;28;20412;-41
2021/05/03 04:30:28;;;;;;;15.87;14.27;;;3.90;99.00;;;;;;5077137;28;20439;-42
2021/05/03 04:32:53;;;;;;;15.30;13.30;;;4.00;99.00;;;;;;5076729;28;20192;-40
2021/05/03 04:35:19;;;;;;;14.53;12.87;;;4.00;99.00;;;;;;5076491;28;20203;-42
2021/05/03 04:37:45;;;;;;;14.67;13.17;;;4.00;99.00;;;;;;5077101;28;20511;-42
2021/05/03 04:40:12;;;;;;;17.43;12.00;;;4.00;98.90;;;;;;5077280;28;20475;-42
2021/05/03 04:42:37;;;;;;;14.80;13.30;;;4.10;98.90;;;;;;5077474;28;20686;-40
2021/05/03 04:45:04;;;;;;;15.03;13.43;;;4.10;98.90;;;;;;5076964;28;20422;-42
2021/05/03 04:47:30;;;;;;;14.53;13.07;;;4.10;98.80;;;;;;5077086;28;20660;-42
2021/05/03 04:49:55;;;;;;;15.30;13.70;;;4.10;98.70;;;;;;5076868;28;20469;-41
2021/05/03 04:52:21;;;;;;;17.20;14.03;;;4.20;98.70;;;;;;5076161;28;20260;-42
2021/05/03 04:54:47;;;;;;;15.60;14.00;;;4.20;98.60;;;;;;5077138;28;20204;-41
2021/05/03 04:57:13;;;;;;;15.47;13.83;;;4.30;98.50;;;;;;5077199;28;20278;-41
2021/05/03 04:59:38;;;;;;;15.60;13.60;;;4.30;98.40;;;;;;5077047;28;20570;-40
2021/05/03 05:02:05;;;;;;;16.60;14.73;;;4.30;98.20;;;;;;5076675;28;20590;-42
2021/05/03 05:04:30;;;;;;;15.77;13.40;;;4.40;97.90;;;;;;5077406;28;20181;-42
2021/05/03 05:06:58;;;;;;;15.63;14.00;;;4.40;97.80;;;;;;5076098;28;20415;-39
2021/05/03 05:09:24;;;;;;;14.70;13.20;;;4.40;97.90;;;;;;5075113;28;20197;-40
2021/05/03 05:11:50;;;;;;;15.03;13.50;;;4.50;98.00;;;;;;5076180;28;20427;-42
2021/05/03 05:14:17;;;;;;;14.90;13.30;;;4.60;97.80;;;;;;5090919;28;20703;-41
2021/05/03 05:16:43;;;;;;;15.87;14.27;;;4.70;97.60;;;;;;5075264;28;20196;-42
2021/05/03 05:19:09;;;;;;;16.23;14.07;;;4.80;97.40;;;;;;5073632;28;20753;-42
2021/05/03 05:21:36;;;;;;;15.93;12.83;;;4.80;97.20;;;;;;5074486;28;20467;-41
2021/05/03 05:24:02;;;;;;;14.47;12.80;;;4.90;97.20;;;;;;5076366;28;20246;-40
2021/05/03 05:26:28;;;;;;;12.73;11.47;;;5.00;97.30;;;;;;5079594;28;20462;-42
2021/05/03 05:28:54;;;;;;;14.60;13.10;;;5.10;97.30;;;;;;5080526;28;20497;-42
2021/05/03 05:31:19;;;;;;;14.70;13.27;;;5.30;96.90;;;;;;5078912;28;20173;-41
2021/05/03 05:33:45;;;;;;;15.07;13.53;;;5.40;96.90;;;;;;5077433;28;20268;-42
2021/05/03 05:36:11;;;;;;;16.23;13.43;;;5.50;96.70;;;;;;5077331;28;20275;-42
2021/05/03 05:38:38;;;;;;;14.80;13.20;;;5.60;96.30;;;;;;5078039;28;20965;-42
2021/05/03 05:41:04;;;;;;;13.33;12.03;;;5.50;95.10;;;;;;5079240;28;20589;-42
2021/05/03 05:43:30;;;;;;;13.40;12.10;;;5.50;95.60;;;;;;5079628;28;20438;-41
2021/05/03 05:45:56;;;;;;;13.10;11.80;;;5.60;95.10;;;;;;5078692;28;20423;-42
2021/05/03 05:48:21;;;;;;;13.87;12.47;;;5.40;95.60;;;;;;5079296;28;20426;-41
2021/05/03 05:50:47;;;;;;;14.67;12.17;;;5.40;95.70;;;;;;5079326;28;20282;-41
2021/05/03 05:53:13;;;;;;;14.33;12.93;;;5.50;95.50;;;;;;5079268;28;20177;-42
2021/05/03 05:55:40;;;;;;;13.17;11.87;;;5.80;95.60;;;;;;5079390;28;20446;-42
2021/05/03 05:58:06;;;;;;;13.03;11.73;;;6.00;94.70;;;;;;5079277;28;20582;-40
2021/05/03 06:00:32;;;;;;;13.83;11.10;;;5.90;94.60;;;;;;5078945;28;20411;-41
2021/05/03 06:02:58;;;;;;;12.53;11.30;;;6.10;93.90;;;;;;5080079;28;20911;-41
2021/05/03 06:05:24;;;;;;;13.23;11.80;;;6.30;93.90;;;;;;5079450;28;20427;-41
2021/05/03 06:07:50;;;;;;;12.30;11.10;;;6.50;93.50;;;;;;5078909;28;20193;-41
2021/05/03 06:10:16;;;;;;;12.83;11.53;;;6.60;93.40;;;;;;5078918;28;20427;-41
2021/05/03 06:12:41;;;;;;;11.97;10.87;;;6.90;93.50;;;;;;5077038;28;20720;-40
2021/05/03 06:15:07;;;;;;;12.00;10.70;;;7.00;92.40;;;;;;5079239;28;20229;-40
2021/05/03 06:17:33;;;;;;;11.90;10.80;;;7.10;91.90;;;;;;5079413;28;20267;-38
2021/05/03 06:19:59;;;;;;;12.70;10.97;;;7.30;91.90;;;;;;5095086;28;20597;-39
2021/05/03 06:22:25;;;;;;;13.10;11.70;;;7.50;91.00;;;;;;5078235;28;20749;-40
2021/05/03 06:24:50;;;;;;;14.40;13.00;;;6.90;91.40;;;;;;5076755;28;20216;-41
2021/05/03 06:27:16;;;;;;;13.13;11.83;;;7.10;91.30;;;;;;5077912;28;20482;-42
2021/05/03 06:29:42;;;;;;;12.47;11.17;;;7.20;91.10;;;;;;5078479;28;20189;-41
2021/05/03 06:32:08;;;;;;;12.13;10.93;;;7.60;91.00;;;;;;5078115;28;20448;-42
2021/05/03 06:34:34;;;;;;;12.53;11.33;;;7.20;90.40;;;;;;5078285;28;20192;-41
2021/05/03 06:36:59;;;;;;;13.40;11.20;;;7.30;91.30;;;;;;5078712;28;20506;-40
2021/05/03 06:39:25;;;;;;;12.57;11.27;;;7.50;90.60;;;;;;5079168;28;20208;-40
2021/05/03 06:41:52;;;;;;;11.90;10.70;;;7.50;90.50;;;;;;5077795;28;20216;-39
2021/05/03 06:44:18;;;;;;;12.67;11.40;;;7.80;91.00;;;;;;5077941;28;20431;-42
2021/05/03 06:46:44;;;;;;;13.07;11.77;;;7.80;89.50;;;;;;5078748;28;20415;-42
2021/05/03 06:49:10;;;;;;;11.57;10.30;;;8.10;89.90;;;;;;5078472;28;20849;-41
2021/05/03 06:51:36;;;;;;;12.47;11.20;;;8.40;88.80;;;;;;5077713;28;20848;-39
2021/05/03 06:54:02;;;;;;;11.20;10.13;;;8.80;88.10;;;;;;5078765;28;20438;-42
2021/05/03 06:56:27;;;;;;;11.70;10.57;;;9.30;88.20;;;;;;5079625;28;20889;-38
2021/05/03 06:58:53;;;;;;;10.47;9.40;;;9.30;85.30;;;;;;5078533;28;20478;-41
2021/05/03 07:01:19;;;;;;;11.60;10.40;;;9.80;84.90;;;;;;5076907;28;20450;-42
2021/05/03 07:03:45;;;;;;;11.40;10.30;;;10.20;82.10;;;;;;5078024;28;20173;-41
2021/05/03 07:06:10;;;;;;;10.10;9.10;;;10.10;79.00;;;;;;5078676;28;20480;-41
2021/05/03 07:08:37;;;;;;;11.10;9.67;;;10.10;79.30;;;;;;5079624;28;20258;-41
2021/05/03 07:11:05;;;;;;;10.50;9.40;;;10.00;79.40;;;;;;5091130;28;20879;-40
2021/05/03 07:13:31;;;;;;;11.70;9.83;;;10.20;78.50;;;;;;5098242;28;20426;-42
2021/05/03 07:15:57;;;;;;;10.57;9.60;;;9.80;79.50;;;;;;5096855;28;20531;-42
2021/05/03 07:18:23;;;;;;;9.77;8.87;;;9.60;80.40;;;;;;5097058;28;20478;-39
2021/05/03 07:20:48;;;;;;;10.33;9.43;;;9.70;80.90;;;;;;5097571;28;20180;-42
2021/05/03 07:23:14;;;;;;;11.23;10.23;;;9.90;80.60;;;;;;5098453;28;20426;-41
2021/05/03 07:25:40;;;;;;;10.83;9.83;;;10.40;79.60;;;;;;5096788;28;20172;-41
2021/05/03 07:28:05;;;;;;;11.20;10.00;;;10.80;77.70;;;;;;5098189;28;20184;-41
2021/05/03 07:30:31;;;;;;;10.00;9.00;;;10.60;75.60;;;;;;5097616;28;20509;-41
2021/05/03 07:32:57;;;;;;;10.50;9.30;;;10.30;75.20;;;;;;5096800;28;20164;-42
2021/05/03 07:35:22;;;;;;;9.20;8.03;;;10.40;75.30;;;;;;5097820;28;20188;-41
2021/05/03 07:37:48;;;;;;;10.40;9.40;;;10.40;75.10;;;;;;5097190;28;20169;-43
2021/05/03 07:40:14;;;;;;;10.43;8.90;;;10.50;74.20;;;;;;5097491;28;20502;-41
2021/05/03 07:42:40;;;;;;;9.90;9.00;;;10.50;74.60;;;;;;5096226;28;20196;-41
2021/05/03 07:45:06;;;;;;;10.37;8.37;;;11.10;73.40;;;;;;5096855;28;20406;-41
2021/05/03 07:47:32;;;;;;;10.70;9.67;;;11.10;72.50;;;;;;5096459;28;20192;-41
2021/05/03 07:49:58;;;;;;;10.27;9.37;;;10.80;70.40;;;;;;5096312;28;20442;-42
2021/05/03 07:52:24;;;;;;;10.40;9.33;;;11.10;70.30;;;;;;5095798;28;20515;-39
2021/05/03 07:54:50;;;;;;;9.30;8.50;;;11.30;69.60;;;;;;5095753;28;20743;-39
2021/05/03 07:57:16;;;;;;;9.60;8.70;;;11.20;69.30;;;;;;5096357;28;20177;-41
2021/05/03 07:59:41;;;;;;;9.30;8.50;;;11.90;68.90;;;;;;5095210;28;20566;-41
2021/05/03 08:02:07;;;;;;;9.97;7.90;;;12.20;67.30;;;;;;5095866;28;20207;-42
2021/05/03 08:04:33;;;;;;;9.03;7.93;;;12.30;64.70;;;;;;5096738;28;20430;-40
2021/05/03 08:07:00;;;;;;;9.77;8.50;;;11.70;62.70;;;;;;5096572;28;20631;-42
2021/05/03 08:09:26;;;;;;;8.77;7.97;;;11.90;63.50;;;;;;5096923;28;20581;-40
2021/05/03 08:11:53;;;;;;;8.13;7.43;;;12.50;62.20;;;;;;5095820;28;20422;-41
2021/05/03 08:14:20;;;;;;;8.33;7.50;;;11.60;59.80;;;;;;5095809;28;20736;-41
2021/05/03 08:16:49;;;;;;;8.13;7.33;;;11.40;60.10;;;;;;5094614;28;20430;-41
2021/05/03 08:19:15;;;;;;;8.10;7.37;;;11.70;60.60;;;;;;5095737;28;20504;-40
2021/05/03 08:21:41;;;;;;;7.47;6.87;;;11.40;59.70;;;;;;5097128;28;20426;-40
2021/05/03 08:24:06;;;;;;;9.40;6.70;;;11.50;59.10;;;;;;5097035;28;20485;-41
2021/05/03 08:26:32;;;;;;;9.83;8.33;;;11.70;58.30;;;;;;5097773;28;20509;-40
2021/05/03 08:28:58;;;;;;;8.90;8.10;;;11.80;57.90;;;;;;5097147;28;20245;-42
2021/05/03 08:31:24;;;;;;;8.23;7.43;;;11.50;59.90;;;;;;5096218;28;20185;-42
2021/05/03 08:33:49;;;;;;;6.40;5.80;;;11.60;60.60;;;;;;5097453;28;20446;-42
2021/05/03 08:36:15;;;;;;;7.70;7.00;;;12.10;61.40;;;;;;5097704;28;20176;-41
2021/05/03 08:38:41;;;;;;;7.03;6.43;;;12.10;57.10;;;;;;5097254;28;20207;-40
2021/05/03 08:41:07;;;;;;;7.13;6.30;;;11.90;56.40;;;;;;5097325;28;20188;-40
2021/05/03 08:43:36;;;;;;;7.03;6.43;;;11.80;55.00;;;;;;5097901;28;20188;-40
2021/05/03 08:46:02;;;;;;;7.13;6.53;;;11.60;55.30;;;;;;5097195;28;20255;-41
2021/05/03 08:48:40;;;;;;;8.23;7.50;;;11.30;56.40;;;;;;5095811;28;20430;-41
2021/05/03 08:51:28;;;;;;;8.13;7.33;;;10.80;57.20;;;;;;5095588;28;20453;-42
2021/05/03 08:54:02;;;;;;;9.80;6.90;;;10.90;57.30;;;;;;5097768;28;20805;-40
2021/05/03 08:56:27;;;;;;;7.83;7.10;;;10.90;57.00;;;;;;5095658;28;20415;-41
2021/05/03 08:58:53;;;;;;;5.50;4.70;;;10.90;57.50;;;;;;5098386;28;20748;-42
2021/05/03 09:01:19;;;;;;;5.10;4.70;;;11.30;60.90;;;;;;5100614;28;20700;-42
2021/05/03 09:03:48;;;;;;;4.17;3.70;;;12.10;66.30;;;;;;5100154;28;20192;-42
2021/05/03 09:06:13;;;;;;;5.57;5.03;;;12.70;64.80;;;;;;5100806;28;20426;-42
2021/05/03 09:08:39;;;;;;;5.60;4.47;;;13.40;59.80;;;;;;5100331;28;20465;-43
2021/05/03 09:11:05;;;;;;;7.53;6.23;;;13.80;57.50;;;;;;5099530;28;20630;-40
2021/05/03 09:13:33;;;;;;;4.83;4.30;;;14.20;54.00;;;;;;5100344;28;20487;-40
2021/05/03 09:16:16;;;;;;;6.20;4.67;;;14.70;53.30;;;;;;5099024;28;20488;-42
2021/05/03 09:18:42;;;;;;;6.20;5.60;;;15.10;53.40;;;;;;5098049;28;20768;-41
2021/05/03 09:21:21;;;;;;;6.27;5.70;;;15.60;50.40;;;;;;5098873;28;20426;-42
2021/05/03 09:24:16;;;;;;;6.07;5.47;;;15.70;48.30;;;;;;5098369;28;20417;-42
2021/05/03 09:26:49;;;;;;;5.67;5.10;;;15.90;46.80;;;;;;5100362;28;20818;-41
2021/05/03 09:29:44;;;;;;;6.10;5.50;;;16.10;46.30;;;;;;5098471;28;20438;-41
2021/05/03 09:32:19;;;;;;;4.80;4.40;;;16.40;46.90;;;;;;5084717;28;20446;-43
2021/05/03 09:34:53;;;;;;;5.30;4.90;;;17.40;46.70;;;;;;5099499;28;20444;-42
2021/05/03 09:37:31;;;;;;;5.77;5.27;;;18.70;43.40;;;;;;5099080;28;20426;-43
2021/05/03 09:40:11;;;;;;;5.00;4.60;;;18.80;41.80;;;;;;5096353;28;20457;-42
2021/05/03 09:42:58;;;;;;;4.50;4.07;;;18.50;41.00;;;;;;5098040;28;20430;-42
2021/05/03 09:45:26;;;;;;;5.20;4.80;;;18.00;42.20;;;;;;5098949;28;20441;-43
2021/05/03 09:47:56;;;;;;;5.53;4.23;;;17.70;41.90;;;;;;5098911;28;20410;-42
2021/05/03 09:50:22;;;;;;;4.20;3.50;;;17.40;43.00;;;;;;5098782;28;20446;-40
2021/05/03 09:53:03;;;;;;;4.70;4.30;;;17.40;43.90;;;;;;5099841;28;20438;-43
2021/05/03 09:55:35;;;;;;;5.00;4.47;;;17.00;39.60;;;;;;5100279;28;20473;-42
2021/05/03 09:58:17;;;;;;;4.33;3.93;;;16.50;41.30;;;;;;5100310;28;20418;-43
2021/05/03 10:00:54;;;;;;;6.13;4.60;;;16.50;41.50;;;;;;5099875;28;20485;-43
2021/05/03 10:03:44;;;;;;;5.90;5.40;;;15.50;39.90;;;;;;5099026;28;20442;-44
2021/05/03 10:06:17;;;;;;;5.33;4.83;;;15.00;40.90;;;;;;5098746;28;20434;-43
2021/05/03 10:08:46;;;;;;;5.40;4.90;;;14.80;41.80;;;;;;5098816;28;20448;-43
2021/05/03 10:11:15;;;;;;;4.67;4.10;;;14.90;41.60;;;;;;5099501;28;20454;-43
2021/05/03 10:13:47;;;;;;;3.80;3.33;;;15.20;40.50;;;;;;5099175;28;20422;-42
2021/05/03 10:16:13;;;;;;;4.60;4.20;;;15.60;39.80;;;;;;5099661;28;20810;-41
2021/05/03 10:18:42;;;;;;;4.40;3.97;;;15.90;38.80;;;;;;5099544;28;20572;-43
2021/05/03 10:21:13;;;;;;;6.20;4.40;;;16.80;38.50;;;;;;5099809;28;20261;-43
2021/05/03 10:23:40;;;;;;;4.77;4.37;;;17.60;39.10;;;;;;5098774;28;20414;-43
2021/05/03 10:26:09;;;;;;;5.30;4.80;;;18.30;37.80;;;;;;5099195;28;20485;-42
2021/05/03 10:28:52;;;;;;;6.57;4.43;;;17.90;37.60;;;;;;5080540;28;20448;-43
2021/05/03 10:31:18;;;;;;;4.13;3.73;;;18.70;37.30;;;;;;5099133;28;20426;-42
2021/05/03 10:33:44;;;;;;;5.00;4.27;;;19.40;36.90;;;;;;5098445;28;20441;-43
2021/05/03 10:36:10;;;;;;;4.03;3.73;;;20.00;35.90;;;;;;5081017;28;20447;-44
2021/05/03 10:38:40;;;;;;;5.10;4.60;;;21.20;34.40;;;;;;5099278;28;20906;-43
2021/05/03 10:41:21;;;;;;;4.23;3.83;;;21.20;32.50;;;;;;5097241;28;20452;-44
2021/05/03 10:43:48;;;;;;;5.23;4.77;;;21.50;32.30;;;;;;5098636;28;20442;-44
2021/05/03 10:49:13;;;;;;;5.47;5.00;;;18.00;33.30;;;;;;5089237;28;20434;-44
2021/05/03 10:56:50;;;;;;;4.93;4.53;;;16.00;36.90;;;;;;5098269;28;20426;-42
2021/05/03 10:59:17;;;;;;;5.33;4.23;;;15.50;35.90;;;;;;5093785;28;20554;-43
2021/05/03 11:01:52;;;;;;;4.73;4.33;;;15.30;35.90;;;;;;5076893;28;20505;-44
2021/05/03 11:04:28;;;;;;;4.20;3.90;;;15.00;36.90;;;;;;5077934;28;20411;-42
2021/05/03 11:06:57;;;;;;;3.50;3.20;;;14.80;36.70;;;;;;5077130;28;20776;-40
2021/05/03 11:09:34;;;;;;;4.20;3.80;;;15.70;37.30;;;;;;5077925;28;20427;-43
2021/05/03 11:12:12;;;;;;;4.70;4.30;;;16.50;35.70;;;;;;5077654;28;20534;-42
2021/05/03 11:14:59;;;;;;;4.37;4.07;;;17.90;34.70;;;;;;5076193;28;20479;-43
2021/05/03 11:17:25;;;;;;;4.57;4.17;;;18.60;33.80;;;;;;5075262;28;20860;-41
2021/05/03 11:22:25;;;;;;;3.70;3.40;;;19.00;33.10;;;;;;5074740;28;20194;-42
2021/05/03 11:27:31;;;;;;;4.00;3.57;;;19.30;33.20;;;;;;5076253;28;20522;-43
2021/05/03 11:32:38;;;;;;;4.33;3.93;;;15.90;32.80;;;;;;5075031;28;20455;-41
2021/05/03 11:35:25;;;;;;;4.37;3.97;;;15.20;34.60;;;;;;5077676;28;20180;-40
2021/05/03 11:38:09;;;;;;;3.47;3.20;;;15.50;34.70;;;;;;5077154;28;20439;-43
2021/05/03 11:43:55;;;;;;;3.93;3.37;;;18.00;33.80;;;;;;5076626;28;20703;-42
2021/05/03 11:46:31;;;;;;;3.73;3.33;;;18.40;33.00;;;;;;5076149;28;20451;-44
2021/05/03 11:49:00;;;;;;;4.03;3.67;;;18.80;32.50;;;;;;5077275;28;20489;-43
2021/05/03 11:51:25;;;;;;;3.37;3.00;;;18.20;32.90;;;;;;5059392;28;20416;-42
2021/05/03 11:53:51;;;;;;;3.77;3.47;;;17.50;33.10;;;;;;5077367;28;20439;-43
2021/05/03 11:56:29;;;;;;;3.27;2.97;;;16.20;33.50;;;;;;5078997;28;20466;-43
2021/05/03 11:58:59;;;;;;;4.10;3.70;;;16.70;35.60;;;;;;5077353;28;20465;-35
2021/05/03 12:01:27;;;;;;;4.00;3.60;;;17.80;34.00;;;;;;5080158;28;20415;-35
2021/05/03 12:03:58;;;;;;;4.00;3.70;;;18.30;33.10;;;;;;5081564;28;20431;-35
2021/05/03 12:06:38;;;;;;;5.60;3.63;;;19.80;32.90;;;;;;5078349;28;20438;-34
2021/05/03 12:09:13;;;;;;;3.87;3.57;;;21.90;31.10;;;;;;5077923;28;20861;-35
2021/05/03 12:11:39;;;;;;;4.40;4.00;;;22.70;30.00;;;;;;5074848;28;20418;-33
2021/05/03 12:14:06;;;;;;;3.83;3.53;;;22.00;29.10;;;;;;5073927;28;20465;-34
2021/05/03 12:16:39;;;;;;;4.03;3.73;;;21.50;29.60;;;;;;5075889;28;20455;-35
2021/05/03 12:19:13;;;;;;;3.97;3.67;;;19.50;29.50;;;;;;5093310;28;20540;-34
2021/05/03 12:21:39;;;;;;;4.00;3.70;;;18.30;30.00;;;;;;5077514;28;20415;-35
2021/05/03 12:24:13;;;;;;;3.63;3.20;;;17.30;31.90;;;;;;5076628;28;20542;-35
2021/05/03 12:26:51;;;;;;;3.90;3.50;;;16.10;32.90;;;;;;5076848;28;20747;-34
2021/05/03 12:29:17;;;;;;;3.53;3.23;;;15.40;33.50;;;;;;5078149;28;20491;-34
2021/05/03 12:31:44;;;;;;;3.33;3.03;;;14.80;33.80;;;;;;5096940;28;20491;-41
2021/05/03 12:34:10;;;;;;;3.60;3.30;;;14.60;35.00;;;;;;5095932;28;20736;-40
2021/05/03 12:36:35;;;;;;;5.23;2.97;;;16.00;34.70;;;;;;5096756;28;20426;-43
2021/05/03 12:39:08;;;;;;;4.00;3.60;;;17.20;33.70;;;;;;5097642;28;20472;-42
2021/05/03 12:41:34;;;;;;;4.70;3.13;;;17.50;31.80;;;;;;5096983;28;20579;-41
2021/05/03 12:44:02;;;;;;;3.20;2.97;;;18.70;32.60;;;;;;5097422;28;20434;-42
2021/05/03 12:46:36;;;;;;;2.90;2.60;;;20.50;32.30;;;;;;5081056;28;20176;-43
2021/05/03 12:49:07;;;;;;;3.00;2.70;;;22.90;31.10;;;;;;5079218;28;20748;-42
2021/05/03 12:51:41;;;;;;;3.20;2.87;;;25.40;29.20;;;;;;5095803;28;20462;-42
2021/05/03 12:54:29;;;;;;;2.67;2.40;;;26.20;27.60;;;;;;5096541;28;20438;-43
2021/05/03 12:59:47;;;;;;;2.60;2.40;;;26.30;26.70;;;;;;5094611;28;20478;-40
2021/05/03 13:02:45;;;;;;;3.20;2.53;;;24.90;26.90;;;;;;5095434;28;20965;-41
2021/05/03 13:05:23;;;;;;;2.57;2.37;;;27.20;27.70;;;;;;5092816;28;20512;-42
2021/05/03 13:08:08;;;;;;;3.30;3.00;;;25.80;25.20;;;;;;5096246;28;20870;-41
2021/05/03 13:22:40;;;;;;;3.37;3.10;;;23.00;26.20;;;;;;5094588;28;20708;-44
2021/05/03 13:28:00;;;;;;;3.00;2.80;;;22.20;26.80;;;;;;5094376;28;20509;-43
2021/05/03 13:28:09;;;;;;;2.70;2.50;;;22.70;26.90;;;;;;5094527;28;20522;-44
2021/05/03 13:30:38;;;;;;;2.80;2.60;;;23.70;26.50;;;;;;5096328;28;20736;-43
2021/05/03 13:33:05;;;;;;;3.20;2.70;;;21.80;26.50;;;;;;5094023;28;20430;-43
2021/05/03 13:35:33;;;;;;;2.97;2.70;;;20.50;27.50;;;;;;5095662;28;20782;-44